Time;durP1;ratioP1;P1;durP2;ratioP2;P2;SDS_P1;SDS_P2;PMS_P1;PMS_P2;Temp;Humidity;BMP_temperature;BMP_pressure;BME280_temperature;BME280_humidity;BME280_pressure;Samples;Min_cycle;Max_cycle;Signal;HPM_P1;HPM_P2
2023/05/22 00:00:07;;;;;;;6.80;6.10;;;;;;;;;;5032229;28;20283;-78
2023/05/22 00:02:37;;;;;;;8.23;6.80;;;;;;;;;;5032295;28;20204;-79
2023/05/22 00:05:05;;;;;;;9.43;6.67;;;;;;;;;;5031934;28;20231;-79
2023/05/22 00:07:32;;;;;;;8.77;6.40;;;;;;;;;;5031759;28;20197;-79
2023/05/22 00:10:00;;;;;;;10.13;6.47;;;;;;;;;;5031705;28;20667;-77
2023/05/22 00:12:27;;;;;;;7.33;5.90;;;;;;;;;;5032131;28;20196;-78
2023/05/22 00:14:56;;;;;;;8.77;5.60;;;;;;;;;;5031734;28;20282;-78
2023/05/22 00:17:23;;;;;;;8.37;6.00;;;;;;;;;;5031686;28;20283;-78
2023/05/22 00:19:52;;;;;;;9.60;5.40;;;;;;;;;;5031987;28;20220;-78
2023/05/22 00:22:19;;;;;;;6.83;5.67;;;;;;;;;;5031774;28;20569;-78
2023/05/22 00:24:47;;;;;;;8.97;5.50;;;;;;;;;;5031301;28;20714;-79
2023/05/22 00:27:14;;;;;;;10.43;5.50;;;;;;;;;;5032161;28;20228;-78
2023/05/22 00:29:41;;;;;;;7.23;5.50;;;;;;;;;;5031597;28;20729;-78
2023/05/22 00:32:10;;;;;;;7.83;5.13;;;;;;;;;;5031178;28;20757;-78
2023/05/22 00:34:37;;;;;;;7.47;5.37;;;;;;;;;;5031265;28;20720;-78
2023/05/22 00:37:04;;;;;;;8.80;5.70;;;;;;;;;;5031776;28;20200;-78
2023/05/22 00:39:31;;;;;;;9.07;5.00;;;;;;;;;;5030906;28;20738;-78
2023/05/22 00:41:59;;;;;;;8.73;5.30;;;;;;;;;;5031369;28;20265;-78
2023/05/22 00:44:26;;;;;;;7.07;5.13;;;;;;;;;;5031559;28;20319;-77
2023/05/22 00:46:53;;;;;;;7.33;4.90;;;;;;;;;;5031250;28;20300;-77
2023/05/22 00:49:21;;;;;;;5.77;4.90;;;;;;;;;;5031218;28;20279;-79
2023/05/22 00:51:49;;;;;;;7.37;4.90;;;;;;;;;;5031250;28;20809;-78
2023/05/22 00:54:17;;;;;;;7.53;4.90;;;;;;;;;;5031640;28;20207;-78
2023/05/22 00:56:44;;;;;;;6.97;5.60;;;;;;;;;;5031235;28;20202;-77
2023/05/22 00:59:12;;;;;;;8.83;5.80;;;;;;;;;;5031335;28;20200;-78
2023/05/22 01:01:41;;;;;;;9.03;5.20;;;;;;;;;;5030562;28;20192;-78
2023/05/22 01:04:10;;;;;;;7.50;4.60;;;;;;;;;;5031041;28;20231;-77
2023/05/22 01:06:40;;;;;;;8.33;5.10;;;;;;;;;;5030900;28;20727;-78
2023/05/22 01:09:07;;;;;;;9.57;6.23;;;;;;;;;;5031319;28;20192;-78
2023/05/22 01:11:38;;;;;;;7.43;5.83;;;;;;;;;;5031113;28;20228;-78
2023/05/22 01:14:09;;;;;;;8.97;5.57;;;;;;;;;;5035945;28;20227;-78
2023/05/22 01:16:40;;;;;;;8.63;5.80;;;;;;;;;;5050316;28;20206;-78
2023/05/22 01:19:24;;;;;;;8.90;5.47;;;;;;;;;;5051296;28;20298;-78
2023/05/22 01:22:02;;;;;;;7.03;5.63;;;;;;;;;;5051193;28;20269;-79
2023/05/22 01:24:50;;;;;;;8.40;5.93;;;;;;;;;;5051046;28;20597;-78
2023/05/22 01:27:33;;;;;;;10.10;6.37;;;;;;;;;;5051063;28;20199;-78
2023/05/22 01:30:08;;;;;;;8.13;5.30;;;;;;;;;;5050488;28;20253;-77
2023/05/22 01:32:37;;;;;;;9.27;5.50;;;;;;;;;;5050553;28;20237;-78
2023/05/22 01:35:06;;;;;;;9.50;5.53;;;;;;;;;;5050954;28;20304;-79
2023/05/22 01:37:34;;;;;;;7.80;5.93;;;;;;;;;;5050713;28;20683;-78
2023/05/22 01:40:01;;;;;;;8.20;5.93;;;;;;;;;;5050703;28;20640;-78
2023/05/22 01:42:28;;;;;;;9.20;6.13;;;;;;;;;;5050647;28;20703;-78
2023/05/22 01:44:56;;;;;;;8.10;5.63;;;;;;;;;;5038052;28;20228;-79
2023/05/22 01:47:23;;;;;;;9.13;5.97;;;;;;;;;;5019765;28;20260;-78
2023/05/22 01:49:52;;;;;;;7.97;6.40;;;;;;;;;;5010885;28;20193;-79
2023/05/22 01:52:23;;;;;;;7.30;5.97;;;;;;;;;;5012824;28;20784;-78
2023/05/22 01:54:54;;;;;;;8.40;6.23;;;;;;;;;;5014944;28;20749;-78
2023/05/22 01:57:25;;;;;;;7.67;5.80;;;;;;;;;;5014669;28;20288;-78
2023/05/22 01:59:54;;;;;;;9.93;6.40;;;;;;;;;;5014129;28;20194;-78
2023/05/22 02:02:22;;;;;;;9.70;5.70;;;;;;;;;;5014569;28;20668;-77
2023/05/22 02:04:52;;;;;;;8.07;5.77;;;;;;;;;;5014393;28;20309;-78
2023/05/22 02:07:23;;;;;;;10.20;5.87;;;;;;;;;;5015081;28;20331;-78
2023/05/22 02:09:51;;;;;;;8.93;6.13;;;;;;;;;;5014470;28;20201;-78
2023/05/22 02:12:19;;;;;;;8.30;6.07;;;;;;;;;;5014560;28;20292;-79
2023/05/22 02:14:46;;;;;;;8.70;6.13;;;;;;;;;;5034808;28;20282;-78
2023/05/22 02:17:13;;;;;;;7.93;6.03;;;;;;;;;;5054146;28;20760;-78
2023/05/22 02:19:40;;;;;;;9.47;6.03;;;;;;;;;;5053814;28;20759;-79
2023/05/22 02:22:12;;;;;;;9.67;6.37;;;;;;;;;;5054416;28;20225;-79
2023/05/22 02:24:41;;;;;;;8.93;6.20;;;;;;;;;;5053841;28;20322;-78
2023/05/22 02:27:08;;;;;;;9.03;6.03;;;;;;;;;;5053887;28;20199;-78
2023/05/22 02:29:35;;;;;;;7.93;5.87;;;;;;;;;;5043010;28;20240;-78
2023/05/22 02:32:03;;;;;;;8.30;6.10;;;;;;;;;;5034011;28;20197;-78
2023/05/22 02:34:31;;;;;;;8.30;5.77;;;;;;;;;;5033541;28;20233;-78
2023/05/22 02:37:02;;;;;;;8.60;5.73;;;;;;;;;;5033992;28;20572;-77
2023/05/22 02:39:29;;;;;;;8.80;6.10;;;;;;;;;;5033518;28;20694;-77
2023/05/22 02:41:58;;;;;;;9.33;5.60;;;;;;;;;;5033689;28;20237;-78
2023/05/22 02:44:25;;;;;;;11.23;5.70;;;;;;;;;;5033359;28;20719;-78
2023/05/22 02:46:52;;;;;;;9.03;5.93;;;;;;;;;;5033712;28;20219;-78
2023/05/22 02:49:19;;;;;;;11.53;6.40;;;;;;;;;;5033427;28;20197;-78
2023/05/22 02:51:47;;;;;;;9.90;6.10;;;;;;;;;;5033598;28;20196;-77
2023/05/22 02:54:15;;;;;;;9.40;6.43;;;;;;;;;;5033126;28;21082;-78
2023/05/22 02:56:42;;;;;;;8.83;6.40;;;;;;;;;;5033052;28;20201;-78
2023/05/22 02:59:11;;;;;;;8.03;6.50;;;;;;;;;;5033540;28;20287;-78
2023/05/22 03:01:38;;;;;;;9.57;6.73;;;;;;;;;;5033424;28;20303;-79
2023/05/22 03:04:06;;;;;;;10.67;6.20;;;;;;;;;;5032365;28;20292;-79
2023/05/22 03:06:33;;;;;;;9.40;6.57;;;;;;;;;;5032875;28;20197;-78
2023/05/22 03:09:02;;;;;;;8.83;5.97;;;;;;;;;;5033552;28;20256;-78
2023/05/22 03:11:29;;;;;;;9.57;6.50;;;;;;;;;;5032401;28;20193;-78
2023/05/22 03:13:57;;;;;;;11.67;6.73;;;;;;;;;;5036597;28;20641;-77
2023/05/22 03:16:25;;;;;;;12.47;7.13;;;;;;;;;;5052828;28;20202;-78
2023/05/22 03:19:07;;;;;;;10.53;7.17;;;;;;;;;;5052916;28;20201;-78
2023/05/22 03:21:35;;;;;;;10.17;6.50;;;;;;;;;;5052631;28;20641;-78
2023/05/22 03:24:02;;;;;;;10.63;7.60;;;;;;;;;;5053215;28;20243;-78
2023/05/22 03:26:29;;;;;;;10.80;7.07;;;;;;;;;;5052208;28;20571;-78
2023/05/22 03:28:56;;;;;;;10.37;7.43;;;;;;;;;;5052953;28;20292;-77
2023/05/22 03:31:26;;;;;;;11.23;7.60;;;;;;;;;;5052970;28;20601;-79
2023/05/22 03:33:53;;;;;;;10.63;7.00;;;;;;;;;;5052584;28;20233;-78
2023/05/22 03:36:21;;;;;;;10.27;7.77;;;;;;;;;;5052643;28;20283;-77
2023/05/22 03:38:49;;;;;;;10.57;7.47;;;;;;;;;;5052727;28;20253;-77
2023/05/22 03:41:16;;;;;;;12.37;7.20;;;;;;;;;;5051862;28;20290;-78
2023/05/22 03:43:43;;;;;;;10.90;7.23;;;;;;;;;;5052457;28;20766;-78
2023/05/22 03:46:10;;;;;;;10.37;7.63;;;;;;;;;;5052301;28;20233;-78
2023/05/22 03:48:39;;;;;;;13.20;7.73;;;;;;;;;;5052819;28;20192;-78
2023/05/22 03:51:06;;;;;;;12.80;7.53;;;;;;;;;;5052401;28;20225;-77
2023/05/22 03:53:33;;;;;;;12.43;7.50;;;;;;;;;;5052457;28;20197;-78
2023/05/22 03:56:00;;;;;;;12.40;7.70;;;;;;;;;;5051785;28;20329;-78
2023/05/22 03:58:28;;;;;;;11.43;7.50;;;;;;;;;;5052325;28;20234;-79
2023/05/22 04:00:57;;;;;;;12.60;8.00;;;;;;;;;;5052363;28;20300;-77
2023/05/22 04:03:24;;;;;;;9.63;7.53;;;;;;;;;;5052071;28;20199;-77
2023/05/22 04:05:53;;;;;;;10.93;7.67;;;;;;;;;;5051792;28;20675;-78
2023/05/22 04:08:20;;;;;;;9.97;6.97;;;;;;;;;;5052180;28;20281;-78
2023/05/22 04:10:47;;;;;;;9.53;7.53;;;;;;;;;;5051391;28;20192;-79
2023/05/22 04:13:14;;;;;;;10.53;7.37;;;;;;;;;;5052086;28;20197;-78
2023/05/22 04:15:44;;;;;;;12.50;7.70;;;;;;;;;;5050989;28;20228;-78
2023/05/22 04:18:11;;;;;;;12.27;7.57;;;;;;;;;;5051546;28;20196;-78
2023/05/22 04:20:39;;;;;;;11.37;7.80;;;;;;;;;;5052203;28;20197;-78
2023/05/22 04:23:07;;;;;;;13.20;7.37;;;;;;;;;;5051889;28;20206;-77
2023/05/22 04:25:35;;;;;;;13.70;8.13;;;;;;;;;;5051206;28;20239;-78
2023/05/22 04:28:03;;;;;;;10.97;7.73;;;;;;;;;;5051475;28;20249;-78
2023/05/22 04:30:32;;;;;;;12.77;7.97;;;;;;;;;;5051795;28;20203;-78
2023/05/22 04:33:00;;;;;;;9.23;7.37;;;;;;;;;;5051349;28;20271;-78
2023/05/22 04:35:29;;;;;;;13.67;8.53;;;;;;;;;;5051660;28;20253;-78
2023/05/22 04:37:56;;;;;;;12.00;7.97;;;;;;;;;;5051977;28;20203;-78
2023/05/22 04:40:25;;;;;;;13.57;8.27;;;;;;;;;;5051145;28;20292;-77
2023/05/22 04:42:53;;;;;;;11.87;7.80;;;;;;;;;;5050728;28;20287;-78
2023/05/22 04:45:24;;;;;;;12.60;8.30;;;;;;;;;;5051253;28;20232;-79
2023/05/22 04:47:52;;;;;;;13.53;7.87;;;;;;;;;;5051400;28;20692;-78
2023/05/22 04:50:19;;;;;;;9.57;7.97;;;;;;;;;;5051318;28;20201;-78
2023/05/22 04:52:47;;;;;;;13.13;8.10;;;;;;;;;;5050747;28;20232;-79
2023/05/22 04:55:14;;;;;;;11.57;8.30;;;;;;;;;;5051080;28;20198;-78
2023/05/22 04:57:43;;;;;;;12.90;7.83;;;;;;;;;;5051157;28;20752;-77
2023/05/22 05:00:13;;;;;;;11.00;7.60;;;;;;;;;;5051568;28;20269;-78
2023/05/22 05:02:40;;;;;;;10.90;8.00;;;;;;;;;;5035009;28;20207;-77
2023/05/22 05:05:08;;;;;;;10.80;8.27;;;;;;;;;;5042978;28;20708;-78
2023/05/22 05:07:37;;;;;;;9.77;7.47;;;;;;;;;;5050122;28;20291;-79
2023/05/22 05:10:05;;;;;;;11.37;8.17;;;;;;;;;;5050301;28;20196;-78
2023/05/22 05:12:32;;;;;;;11.00;7.70;;;;;;;;;;5043260;28;20223;-79
2023/05/22 05:15:00;;;;;;;12.50;7.43;;;;;;;;;;5043496;28;20289;-79
2023/05/22 05:17:28;;;;;;;13.43;7.57;;;;;;;;;;5050836;28;20198;-79
2023/05/22 05:19:55;;;;;;;13.50;7.23;;;;;;;;;;5051016;28;20653;-78
2023/05/22 05:22:22;;;;;;;14.13;8.07;;;;;;;;;;5050667;28;20282;-78
2023/05/22 05:24:49;;;;;;;13.63;7.77;;;;;;;;;;5050535;28;20196;-79
2023/05/22 05:27:16;;;;;;;12.17;7.50;;;;;;;;;;5054493;28;20309;-79
2023/05/22 05:29:44;;;;;;;9.73;6.70;;;;;;;;;;5043884;28;20219;-78
2023/05/22 05:32:12;;;;;;;9.23;6.00;;;;;;;;;;5034930;28;20287;-79
2023/05/22 05:34:40;;;;;;;9.97;6.30;;;;;;;;;;5034317;28;20247;-79
2023/05/22 05:37:07;;;;;;;9.73;6.53;;;;;;;;;;5034671;28;20203;-79
2023/05/22 05:39:35;;;;;;;10.77;6.40;;;;;;;;;;5034504;28;20208;-79
2023/05/22 05:42:02;;;;;;;7.50;5.37;;;;;;;;;;5042235;28;20296;-79
2023/05/22 05:44:29;;;;;;;7.93;5.67;;;;;;;;;;5034229;28;20251;-79
2023/05/22 05:46:56;;;;;;;10.30;5.83;;;;;;;;;;5034226;28;20600;-80
2023/05/22 05:49:25;;;;;;;9.33;5.40;;;;;;;;;;5034217;28;20204;-81
2023/05/22 05:51:53;;;;;;;9.27;5.67;;;;;;;;;;5042028;28;20196;-79
2023/05/22 05:54:20;;;;;;;6.67;5.30;;;;;;;;;;5028357;28;20202;-79
2023/05/22 05:56:48;;;;;;;11.67;5.63;;;;;;;;;;5053947;28;20199;-79
2023/05/22 05:59:15;;;;;;;19.30;5.87;;;;;;;;;;5041601;28;20291;-80
2023/05/22 06:01:44;;;;;;;9.37;5.23;;;;;;;;;;5033664;28;20691;-79
2023/05/22 06:04:12;;;;;;;7.67;4.93;;;;;;;;;;5034073;28;20236;-80
2023/05/22 06:06:41;;;;;;;9.83;4.87;;;;;;;;;;5033475;28;20226;-80
2023/05/22 06:09:09;;;;;;;8.87;4.87;;;;;;;;;;5034552;28;20204;-80
2023/05/22 06:11:36;;;;;;;5.33;4.40;;;;;;;;;;5034863;28;20201;-79
2023/05/22 06:14:06;;;;;;;8.67;4.93;;;;;;;;;;5038633;28;20287;-80
2023/05/22 06:16:33;;;;;;;6.90;4.50;;;;;;;;;;5054370;28;20199;-79
2023/05/22 06:19:00;;;;;;;8.30;4.93;;;;;;;;;;5042190;28;20197;-80
2023/05/22 06:21:28;;;;;;;7.63;5.00;;;;;;;;;;5033413;28;20280;-80
2023/05/22 06:23:57;;;;;;;8.27;4.73;;;;;;;;;;5039001;28;20283;-80
2023/05/22 06:26:24;;;;;;;8.43;4.53;;;;;;;;;;5032275;28;20323;-79
2023/05/22 06:28:52;;;;;;;5.93;4.25;;;;;;;;;;5026163;28;20247;-79
2023/05/22 06:31:20;;;;;;;8.57;4.28;;;;;;;;;;5032547;28;20288;-81
2023/05/22 06:33:47;;;;;;;5.43;4.25;;;;;;;;;;5033037;28;20331;-79
2023/05/22 06:36:15;;;;;;;8.77;4.57;;;;;;;;;;5032560;28;20279;-79
2023/05/22 06:38:44;;;;;;;9.80;4.45;;;;;;;;;;5032746;28;20201;-81
2023/05/22 06:41:13;;;;;;;6.55;4.00;;;;;;;;;;5033973;28;20208;-80
2023/05/22 06:43:41;;;;;;;7.35;4.28;;;;;;;;;;5032740;28;20197;-79
2023/05/22 06:46:08;;;;;;;8.40;4.47;;;;;;;;;;5013870;28;20316;-79
2023/05/22 06:48:36;;;;;;;8.32;4.13;;;;;;;;;;5014048;28;20246;-79
2023/05/22 06:51:04;;;;;;;6.18;3.88;;;;;;;;;;5013779;28;20270;-78
2023/05/22 06:53:31;;;;;;;5.97;3.78;;;;;;;;;;5027945;28;20197;-79
2023/05/22 06:55:58;;;;;;;5.72;4.22;;;;;;;;;;5032152;28;20287;-79
2023/05/22 06:58:27;;;;;;;6.63;4.32;;;;;;;;;;5041445;28;20283;-80
2023/05/22 07:00:54;;;;;;;7.25;3.72;;;;;;;;;;5053798;28;20227;-80
2023/05/22 07:03:21;;;;;;;6.40;3.95;;;;;;;;;;5053273;28;20196;-80
2023/05/22 07:05:49;;;;;;;7.25;4.20;;;;;;;;;;5053533;28;20255;-80
2023/05/22 07:08:17;;;;;;;6.47;4.18;;;;;;;;;;5053161;28;20199;-80
2023/05/22 07:10:44;;;;;;;5.93;3.92;;;;;;;;;;5053291;28;20287;-80
2023/05/22 07:13:11;;;;;;;7.10;4.15;;;;;;;;;;5053060;28;20290;-79
2023/05/22 07:15:40;;;;;;;6.40;4.28;;;;;;;;;;5035732;28;20247;-81
2023/05/22 07:18:08;;;;;;;6.43;4.00;;;;;;;;;;5032641;28;20227;-79
2023/05/22 07:20:35;;;;;;;9.23;4.10;;;;;;;;;;5033026;28;20196;-77
2023/05/22 07:23:02;;;;;;;5.68;3.38;;;;;;;;;;5033017;28;20231;-80
2023/05/22 07:25:30;;;;;;;8.60;4.00;;;;;;;;;;5032985;28;20228;-80
2023/05/22 07:27:58;;;;;;;7.45;4.20;;;;;;;;;;5033136;28;20295;-80
2023/05/22 07:30:25;;;;;;;5.95;4.32;;;;;;;;;;5033049;28;20208;-80
2023/05/22 07:32:54;;;;;;;5.25;3.40;;;;;;;;;;5032248;28;20335;-80
2023/05/22 07:35:22;;;;;;;6.13;3.67;;;;;;;;;;5032709;28;20216;-80
2023/05/22 07:37:49;;;;;;;7.63;4.10;;;;;;;;;;5033095;28;20196;-80
2023/05/22 07:40:16;;;;;;;6.03;3.90;;;;;;;;;;5033091;28;20235;-80
2023/05/22 07:42:43;;;;;;;5.68;3.70;;;;;;;;;;5032855;28;20287;-79
2023/05/22 07:45:11;;;;;;;5.32;3.50;;;;;;;;;;5032710;28;20688;-80
2023/05/22 07:47:38;;;;;;;8.20;4.03;;;;;;;;;;5031890;28;20324;-80
2023/05/22 07:50:08;;;;;;;10.25;3.88;;;;;;;;;;5032584;28;20295;-80
2023/05/22 07:52:35;;;;;;;7.05;3.97;;;;;;;;;;5032687;28;20227;-80
2023/05/22 07:55:02;;;;;;;5.50;3.50;;;;;;;;;;5032823;28;20292;-80
2023/05/22 07:57:29;;;;;;;7.35;3.90;;;;;;;;;;5032446;28;20291;-80
2023/05/22 07:59:58;;;;;;;6.57;4.38;;;;;;;;;;5032064;28;20575;-81
2023/05/22 08:02:25;;;;;;;6.78;4.57;;;;;;;;;;5031914;28;20203;-80
2023/05/22 08:04:52;;;;;;;9.73;4.38;;;;;;;;;;5032378;28;20586;-80
2023/05/22 08:07:21;;;;;;;9.38;4.50;;;;;;;;;;5032128;28;20232;-80
2023/05/22 08:09:48;;;;;;;5.72;4.32;;;;;;;;;;5032424;28;20648;-80
2023/05/22 08:12:15;;;;;;;13.68;4.78;;;;;;;;;;5031960;28;20749;-80
2023/05/22 08:14:42;;;;;;;6.22;4.65;;;;;;;;;;5041891;28;20727;-80
2023/05/22 08:17:10;;;;;;;7.40;4.72;;;;;;;;;;5051199;28;20759;-80
2023/05/22 08:19:37;;;;;;;10.60;4.95;;;;;;;;;;5039838;28;20208;-79
2023/05/22 08:22:04;;;;;;;6.85;4.70;;;;;;;;;;5049474;28;20238;-79
2023/05/22 08:24:32;;;;;;;6.72;4.68;;;;;;;;;;5031786;28;20220;-80
2023/05/22 08:27:00;;;;;;;10.73;5.20;;;;;;;;;;5038626;28;20608;-78
2023/05/22 08:29:27;;;;;;;7.55;4.85;;;;;;;;;;5051840;28;20242;-80
2023/05/22 08:31:55;;;;;;;5.35;4.13;;;;;;;;;;5051200;28;20219;-79
2023/05/22 08:34:22;;;;;;;7.85;4.97;;;;;;;;;;5051729;28;20259;-79
2023/05/22 08:36:50;;;;;;;7.22;4.43;;;;;;;;;;5034007;28;20538;-79
2023/05/22 08:39:17;;;;;;;7.72;4.97;;;;;;;;;;5032023;28;20224;-80
2023/05/22 08:41:46;;;;;;;6.93;4.80;;;;;;;;;;5031531;28;20768;-80
2023/05/22 08:44:13;;;;;;;6.80;4.90;;;;;;;;;;5031677;28;20203;-80
2023/05/22 08:46:42;;;;;;;9.05;4.65;;;;;;;;;;5031145;28;20285;-80
2023/05/22 08:49:10;;;;;;;8.60;4.95;;;;;;;;;;5031449;28;20214;-80
2023/05/22 08:51:41;;;;;;;6.57;4.80;;;;;;;;;;5031938;28;20192;-80
2023/05/22 08:54:09;;;;;;;6.90;4.60;;;;;;;;;;5051154;28;20294;-79
2023/05/22 08:56:37;;;;;;;8.30;4.82;;;;;;;;;;5034883;28;20197;-79
2023/05/22 08:59:07;;;;;;;9.18;5.10;;;;;;;;;;5031109;28;20680;-80
2023/05/22 09:01:34;;;;;;;10.95;5.10;;;;;;;;;;5030693;28;20250;-80
2023/05/22 09:04:02;;;;;;;7.93;4.88;;;;;;;;;;5031042;28;20250;-81
2023/05/22 09:06:30;;;;;;;6.32;4.95;;;;;;;;;;5031230;28;20583;-78
2023/05/22 09:08:57;;;;;;;5.93;4.60;;;;;;;;;;5031142;28;20204;-80
2023/05/22 09:11:25;;;;;;;7.30;4.95;;;;;;;;;;5031231;28;20278;-80
2023/05/22 09:13:53;;;;;;;6.72;5.28;;;;;;;;;;5033440;28;20660;-79
2023/05/22 09:16:21;;;;;;;7.95;5.25;;;;;;;;;;5051570;28;20227;-80
2023/05/22 09:18:49;;;;;;;6.03;5.10;;;;;;;;;;5051059;28;20223;-79
2023/05/22 09:21:18;;;;;;;9.30;4.90;;;;;;;;;;5051372;28;20200;-79
2023/05/22 09:23:50;;;;;;;6.53;5.22;;;;;;;;;;5051020;28;20206;-78
2023/05/22 09:26:18;;;;;;;5.82;4.38;;;;;;;;;;5051173;28;20723;-79
2023/05/22 09:28:45;;;;;;;15.57;6.07;;;;;;;;;;5050431;28;20199;-79
2023/05/22 09:31:12;;;;;;;7.30;5.35;;;;;;;;;;5032169;28;20204;-80
2023/05/22 09:33:43;;;;;;;6.50;4.15;;;;;;;;;;5030964;28;20331;-81
2023/05/22 09:36:11;;;;;;;6.53;4.70;;;;;;;;;;5031075;28;20291;-81
2023/05/22 09:38:38;;;;;;;6.00;4.78;;;;;;;;;;5031215;28;20204;-80
2023/05/22 09:41:06;;;;;;;6.72;4.65;;;;;;;;;;5030935;28;20197;-80
2023/05/22 09:43:34;;;;;;;6.30;4.25;;;;;;;;;;5030641;28;20291;-79
2023/05/22 09:46:03;;;;;;;8.25;4.70;;;;;;;;;;5031119;28;20196;-80
2023/05/22 09:48:35;;;;;;;6.93;4.55;;;;;;;;;;5031103;28;20193;-79
2023/05/22 09:51:05;;;;;;;6.97;4.53;;;;;;;;;;5030804;28;20197;-80
2023/05/22 09:53:34;;;;;;;6.40;4.65;;;;;;;;;;5030682;28;20707;-79
2023/05/22 09:56:02;;;;;;;6.97;4.68;;;;;;;;;;5030986;28;20200;-80
2023/05/22 09:58:31;;;;;;;5.47;4.40;;;;;;;;;;5030463;28;20200;-81
2023/05/22 10:01:00;;;;;;;6.20;4.68;;;;;;;;;;5031181;28;20295;-80
2023/05/22 10:03:27;;;;;;;10.23;5.03;;;;;;;;;;5030695;28;20193;-80
2023/05/22 10:05:55;;;;;;;7.05;4.70;;;;;;;;;;5030883;28;20287;-81
2023/05/22 10:08:26;;;;;;;8.57;4.75;;;;;;;;;;5030703;28;20232;-79
2023/05/22 10:10:53;;;;;;;5.90;4.63;;;;;;;;;;5030700;28;20205;-80
2023/05/22 10:13:21;;;;;;;7.25;4.72;;;;;;;;;;5032350;28;20283;-80
2023/05/22 10:15:48;;;;;;;7.07;4.90;;;;;;;;;;5053472;28;20283;-80
2023/05/22 10:18:16;;;;;;;7.82;4.65;;;;;;;;;;5054424;28;20227;-81
2023/05/22 10:20:43;;;;;;;7.55;4.68;;;;;;;;;;5054408;28;20196;-81
2023/05/22 10:23:11;;;;;;;7.63;4.90;;;;;;;;;;5054690;28;20286;-81
2023/05/22 10:25:39;;;;;;;8.35;4.85;;;;;;;;;;5054254;28;20216;-82
2023/05/22 10:28:07;;;;;;;7.60;4.70;;;;;;;;;;5053672;28;20263;-82
2023/05/22 10:30:37;;;;;;;7.47;4.60;;;;;;;;;;5053994;28;20239;-79
2023/05/22 10:33:08;;;;;;;7.07;4.40;;;;;;;;;;5053880;28;20258;-79
2023/05/22 10:35:39;;;;;;;6.88;4.50;;;;;;;;;;5054045;28;20661;-78
2023/05/22 10:38:15;;;;;;;7.63;4.43;;;;;;;;;;5053558;28;20590;-79
2023/05/22 10:40:46;;;;;;;6.97;4.57;;;;;;;;;;5053417;28;20291;-79
2023/05/22 10:43:13;;;;;;;6.90;5.40;;;;;;;;;;5053787;28;20283;-79
2023/05/22 10:45:40;;;;;;;6.85;4.93;;;;;;;;;;5053684;28;20290;-79
2023/05/22 10:48:08;;;;;;;7.25;4.63;;;;;;;;;;5039686;28;20232;-79
2023/05/22 10:50:36;;;;;;;7.47;5.00;;;;;;;;;;5033613;28;20673;-79
2023/05/22 10:53:19;;;;;;;7.35;4.75;;;;;;;;;;5034044;28;20196;-79
2023/05/22 10:55:51;;;;;;;8.93;4.95;;;;;;;;;;5033361;28;20206;-79
2023/05/22 10:58:19;;;;;;;5.32;4.75;;;;;;;;;;5033570;28;20827;-80
2023/05/22 11:00:46;;;;;;;6.25;5.07;;;;;;;;;;5035021;28;20228;-80
2023/05/22 11:03:15;;;;;;;7.50;4.85;;;;;;;;;;5040312;28;20295;-80
2023/05/22 11:05:42;;;;;;;8.00;4.85;;;;;;;;;;5033468;28;20594;-80
2023/05/22 11:08:10;;;;;;;8.00;4.97;;;;;;;;;;5033035;28;20323;-80
2023/05/22 11:10:54;;;;;;;6.78;4.85;;;;;;;;;;5032946;28;20283;-79
2023/05/22 11:13:22;;;;;;;8.85;4.60;;;;;;;;;;5033315;28;20196;-79
2023/05/22 11:15:49;;;;;;;7.65;5.03;;;;;;;;;;5052199;28;20303;-79
2023/05/22 11:18:17;;;;;;;7.40;5.28;;;;;;;;;;5053081;28;20200;-80
2023/05/22 11:20:44;;;;;;;7.05;4.68;;;;;;;;;;5053571;28;20227;-79
2023/05/22 11:23:12;;;;;;;6.97;5.00;;;;;;;;;;5052733;28;20619;-79
2023/05/22 11:25:41;;;;;;;7.35;5.20;;;;;;;;;;5052469;28;20234;-80
2023/05/22 11:28:10;;;;;;;7.60;5.70;;;;;;;;;;5052727;28;20228;-79
2023/05/22 11:30:37;;;;;;;8.45;5.80;;;;;;;;;;5053074;28;20196;-80
2023/05/22 11:33:06;;;;;;;10.13;4.85;;;;;;;;;;5039486;28;20323;-80
2023/05/22 11:35:33;;;;;;;9.60;5.63;;;;;;;;;;5048270;28;20576;-80
2023/05/22 11:38:00;;;;;;;7.97;5.47;;;;;;;;;;5033268;28;20292;-80
2023/05/22 11:40:29;;;;;;;8.30;5.85;;;;;;;;;;5041297;28;20200;-79
2023/05/22 11:42:56;;;;;;;8.40;5.88;;;;;;;;;;5032165;28;20203;-80
2023/05/22 11:45:25;;;;;;;7.72;5.32;;;;;;;;;;5032375;28;20677;-79
2023/05/22 11:47:53;;;;;;;6.72;5.32;;;;;;;;;;5033142;28;20251;-79
2023/05/22 11:50:20;;;;;;;8.32;4.88;;;;;;;;;;5034914;28;20206;-80
2023/05/22 11:52:48;;;;;;;6.53;5.15;;;;;;;;;;5032650;28;20200;-80
2023/05/22 11:55:15;;;;;;;6.82;5.82;;;;;;;;;;5031979;28;20661;-80
2023/05/22 11:57:43;;;;;;;7.45;4.85;;;;;;;;;;5032067;28;20295;-80
2023/05/22 12:00:10;;;;;;;7.05;5.63;;;;;;;;;;5032285;28;20200;-80
2023/05/22 12:02:39;;;;;;;7.68;5.18;;;;;;;;;;5032094;28;20658;-80
2023/05/22 12:05:08;;;;;;;8.68;5.15;;;;;;;;;;5034108;28;20283;-80
2023/05/22 12:07:36;;;;;;;7.70;5.68;;;;;;;;;;5052068;28;20247;-80
2023/05/22 12:10:06;;;;;;;6.65;5.90;;;;;;;;;;5052576;28;20238;-80
2023/05/22 12:12:33;;;;;;;6.63;5.15;;;;;;;;;;5052639;28;20196;-80
2023/05/22 12:15:00;;;;;;;7.47;5.50;;;;;;;;;;5039114;28;20567;-80
2023/05/22 12:17:29;;;;;;;8.00;5.85;;;;;;;;;;5031901;28;20220;-81
2023/05/22 12:19:57;;;;;;;9.10;5.78;;;;;;;;;;5032633;28;20204;-80
2023/05/22 12:22:28;;;;;;;8.35;5.53;;;;;;;;;;5031275;28;20220;-80
2023/05/22 12:24:55;;;;;;;9.90;5.55;;;;;;;;;;5032115;28;20204;-80
2023/05/22 12:27:22;;;;;;;6.45;5.15;;;;;;;;;;5032233;28;20318;-81
2023/05/22 12:29:51;;;;;;;6.07;5.38;;;;;;;;;;5032007;28;20649;-81
2023/05/22 12:32:22;;;;;;;8.50;5.20;;;;;;;;;;5032153;28;20200;-80
2023/05/22 12:34:49;;;;;;;7.72;5.50;;;;;;;;;;5030810;28;20627;-81
2023/05/22 12:37:23;;;;;;;8.77;6.00;;;;;;;;;;5031354;28;20292;-81
2023/05/22 12:39:54;;;;;;;8.48;5.13;;;;;;;;;;5038734;28;20219;-81
2023/05/22 12:42:21;;;;;;;8.20;6.60;;;;;;;;;;5051417;28;20637;-78
2023/05/22 12:44:50;;;;;;;10.43;7.32;;;;;;;;;;5051472;28;20657;-79
2023/05/22 12:47:18;;;;;;;9.13;6.45;;;;;;;;;;5051664;28;20210;-81
2023/05/22 12:49:45;;;;;;;8.50;6.53;;;;;;;;;;5042562;28;20728;-81
2023/05/22 12:52:13;;;;;;;7.85;6.25;;;;;;;;;;5031034;28;20636;-81
2023/05/22 12:54:41;;;;;;;7.15;5.65;;;;;;;;;;5031445;28;20204;-81
2023/05/22 12:57:09;;;;;;;6.90;5.57;;;;;;;;;;5031770;28;20291;-80
2023/05/22 12:59:36;;;;;;;8.27;5.55;;;;;;;;;;5031699;28;20196;-81
2023/05/22 13:02:04;;;;;;;8.02;5.70;;;;;;;;;;5031665;28;20279;-81
2023/05/22 13:04:31;;;;;;;9.38;6.20;;;;;;;;;;5031831;28;20287;-77
2023/05/22 13:06:59;;;;;;;8.88;6.63;;;;;;;;;;5031494;28;20242;-80
2023/05/22 13:09:26;;;;;;;9.73;5.60;;;;;;;;;;5031999;28;20729;-79
2023/05/22 13:11:55;;;;;;;7.28;6.22;;;;;;;;;;5031466;28;20203;-79
2023/05/22 13:14:22;;;;;;;7.40;6.10;;;;;;;;;;5038488;28;20222;-79
2023/05/22 13:16:50;;;;;;;7.22;6.40;;;;;;;;;;5050609;28;20294;-78
2023/05/22 13:19:17;;;;;;;7.93;6.05;;;;;;;;;;5051247;28;20196;-79
2023/05/22 13:21:44;;;;;;;7.72;5.95;;;;;;;;;;5050671;28;20291;-79
2023/05/22 13:24:12;;;;;;;10.18;7.28;;;;;;;;;;5051439;28;20566;-79
2023/05/22 13:26:39;;;;;;;8.60;7.00;;;;;;;;;;5051335;28;20219;-79
2023/05/22 13:29:08;;;;;;;9.23;6.32;;;;;;;;;;5051161;28;20318;-79
2023/05/22 13:31:36;;;;;;;7.82;5.75;;;;;;;;;;5050844;28;20219;-80
2023/05/22 13:34:04;;;;;;;8.45;5.97;;;;;;;;;;5050931;28;20253;-80
2023/05/22 13:36:31;;;;;;;8.10;6.13;;;;;;;;;;5050349;28;20675;-78
2023/05/22 13:38:59;;;;;;;8.18;6.15;;;;;;;;;;5051074;28;20199;-80
2023/05/22 13:41:26;;;;;;;8.60;6.40;;;;;;;;;;5050747;28;20688;-80
2023/05/22 13:43:53;;;;;;;11.82;5.57;;;;;;;;;;5051387;28;20287;-80
2023/05/22 13:46:22;;;;;;;6.57;5.50;;;;;;;;;;5051493;28;20247;-79
2023/05/22 13:48:50;;;;;;;7.88;6.13;;;;;;;;;;5053326;28;20237;-80
2023/05/22 13:51:17;;;;;;;16.23;5.90;;;;;;;;;;5034558;28;20200;-80
2023/05/22 13:53:44;;;;;;;11.93;5.70;;;;;;;;;;5035016;28;20290;-80
2023/05/22 13:56:11;;;;;;;9.88;6.05;;;;;;;;;;5034763;28;20228;-79
2023/05/22 13:58:39;;;;;;;8.25;6.53;;;;;;;;;;5034311;28;20283;-81
2023/05/22 14:01:06;;;;;;;7.15;5.90;;;;;;;;;;5034928;28;20292;-79
2023/05/22 14:03:34;;;;;;;9.45;6.20;;;;;;;;;;5034438;28;20235;-80
2023/05/22 14:06:01;;;;;;;9.25;5.85;;;;;;;;;;5034225;28;20289;-79
2023/05/22 14:08:29;;;;;;;6.65;5.38;;;;;;;;;;5034631;28;20252;-80
2023/05/22 14:10:56;;;;;;;6.00;5.30;;;;;;;;;;5034298;28;20740;-79
2023/05/22 14:13:23;;;;;;;6.07;5.20;;;;;;;;;;5035067;28;20291;-79
2023/05/22 14:15:50;;;;;;;6.45;5.30;;;;;;;;;;5053396;28;20298;-80
2023/05/22 14:18:18;;;;;;;8.10;5.57;;;;;;;;;;5054053;28;20286;-80
2023/05/22 14:20:47;;;;;;;8.23;6.43;;;;;;;;;;5054393;28;20683;-80
2023/05/22 14:23:14;;;;;;;7.13;5.88;;;;;;;;;;5055131;28;20341;-79
2023/05/22 14:25:41;;;;;;;8.40;5.45;;;;;;;;;;5054502;28;20290;-80
2023/05/22 14:28:09;;;;;;;8.50;5.45;;;;;;;;;;5054341;28;20569;-78
2023/05/22 14:30:36;;;;;;;6.30;5.70;;;;;;;;;;5054317;28;20229;-80
2023/05/22 14:33:03;;;;;;;7.50;5.07;;;;;;;;;;5053690;28;20227;-79
2023/05/22 14:35:30;;;;;;;8.23;5.63;;;;;;;;;;5054048;28;20254;-80
2023/05/22 14:37:59;;;;;;;6.40;4.70;;;;;;;;;;5054037;28;20195;-80
2023/05/22 14:40:26;;;;;;;7.68;4.88;;;;;;;;;;5054048;28;20245;-79
2023/05/22 14:42:53;;;;;;;6.47;4.70;;;;;;;;;;5054080;28;20279;-80
2023/05/22 14:45:21;;;;;;;8.55;6.40;;;;;;;;;;5054199;28;20286;-79